KLXL

Little Falls / Morrison County-Lindbergh Field Airport

Little Falls, Minnesota, USA
METAR KLXL 151759Z AUTO 29005KT 10SM CLR M13/M18 A3006 RMK AO2
Observed Flight Rules
Feb-15 @ 17:59 UTC (an hour ago) Visual Flight Rules
Wind Visibility Clouds
290° at 5 knots 10 miles
  • Clear skies
Temperatures Readings
Current -13°C / 9°F
Dewpoint -18°C / -0°F
Humidity 66%
Altimeter 30.06" Hg
Pressure 1017.92 hPa
Elevation 342
METAR KLXL 151759Z AUTO 29005KT 10SM CLR M13/M18 A3006 RMK AO2
Observed Flight Rules
Feb-15 @ 17:59 UTC
(an hour ago)
VFR
Wind Visibility
290° at 5 knots 10 miles
Clouds
  • Clear skies
Temperature Dewpoint
-13°C / 9°F -18°C / -0°F
Humidity Altimeter Pressure
66% 30.06" Hg 1017.92 hPa